sensor_id;sensor_type;location;lat;lon;timestamp;P1;durP1;ratioP1;P2;durP2;ratioP2
4148;SDS011;2088;51.032;7.082;2023-04-01T00:01:21;2.50;;;0.70;;
4148;SDS011;2088;51.032;7.082;2023-04-01T00:03:48;0.80;;;0.60;;
4148;SDS011;2088;51.032;7.082;2023-04-01T00:06:16;2.77;;;0.70;;
4148;SDS011;2088;51.032;7.082;2023-04-01T00:08:45;0.80;;;0.70;;
4148;SDS011;2088;51.032;7.082;2023-04-01T00:11:12;2.53;;;0.70;;
4148;SDS011;2088;51.032;7.082;2023-04-01T00:13:39;0.90;;;0.60;;
4148;SDS011;2088;51.032;7.082;2023-04-01T00:16:07;1.57;;;0.70;;
4148;SDS011;2088;51.032;7.082;2023-04-01T00:18:34;0.97;;;0.80;;
4148;SDS011;2088;51.032;7.082;2023-04-01T00:21:01;0.93;;;0.80;;
4148;SDS011;2088;51.032;7.082;2023-04-01T00:23:29;1.00;;;0.60;;
4148;SDS011;2088;51.032;7.082;2023-04-01T00:25:58;4.30;;;0.87;;
4148;SDS011;2088;51.032;7.082;2023-04-01T00:28:25;2.03;;;0.80;;
4148;SDS011;2088;51.032;7.082;2023-04-01T00:30:53;3.90;;;0.80;;
4148;SDS011;2088;51.032;7.082;2023-04-01T00:33:20;2.80;;;1.20;;
4148;SDS011;2088;51.032;7.082;2023-04-01T00:35:47;0.80;;;0.60;;
4148;SDS011;2088;51.032;7.082;2023-04-01T00:38:14;1.27;;;0.77;;
4148;SDS011;2088;51.032;7.082;2023-04-01T00:40:44;1.10;;;0.80;;
4148;SDS011;2088;51.032;7.082;2023-04-01T00:43:14;1.43;;;0.77;;
4148;SDS011;2088;51.032;7.082;2023-04-01T00:45:44;2.60;;;0.60;;
4148;SDS011;2088;51.032;7.082;2023-04-01T00:48:12;1.13;;;0.90;;
4148;SDS011;2088;51.032;7.082;2023-04-01T00:50:40;1.37;;;0.70;;
4148;SDS011;2088;51.032;7.082;2023-04-01T00:53:09;1.33;;;0.70;;
4148;SDS011;2088;51.032;7.082;2023-04-01T00:55:38;1.90;;;0.60;;
4148;SDS011;2088;51.032;7.082;2023-04-01T00:58:07;1.10;;;0.83;;
4148;SDS011;2088;51.032;7.082;2023-04-01T01:00:37;1.60;;;0.80;;
4148;SDS011;2088;51.032;7.082;2023-04-01T01:03:04;1.30;;;1.10;;
4148;SDS011;2088;51.032;7.082;2023-04-01T01:05:35;0.80;;;0.80;;
4148;SDS011;2088;51.032;7.082;2023-04-01T01:08:06;2.03;;;0.60;;
4148;SDS011;2088;51.032;7.082;2023-04-01T01:10:39;0.70;;;0.60;;
4148;SDS011;2088;51.032;7.082;2023-04-01T01:13:09;1.00;;;0.60;;
4148;SDS011;2088;51.032;7.082;2023-04-01T01:15:39;2.00;;;0.60;;
4148;SDS011;2088;51.032;7.082;2023-04-01T01:18:09;4.50;;;1.13;;
4148;SDS011;2088;51.032;7.082;2023-04-01T01:20:48;0.70;;;0.60;;
4148;SDS011;2088;51.032;7.082;2023-04-01T01:26:17;0.90;;;0.80;;
4148;SDS011;2088;51.032;7.082;2023-04-01T01:28:52;1.27;;;0.80;;
4148;SDS011;2088;51.032;7.082;2023-04-01T01:31:24;0.70;;;0.70;;
4148;SDS011;2088;51.032;7.082;2023-04-01T01:33:58;0.70;;;0.70;;
4148;SDS011;2088;51.032;7.082;2023-04-01T01:36:30;3.23;;;1.07;;
4148;SDS011;2088;51.032;7.082;2023-04-01T01:38:59;1.00;;;0.50;;
4148;SDS011;2088;51.032;7.082;2023-04-01T01:41:27;1.10;;;0.67;;
4148;SDS011;2088;51.032;7.082;2023-04-01T01:43:55;0.70;;;0.50;;
4148;SDS011;2088;51.032;7.082;2023-04-01T01:46:23;2.30;;;0.60;;
4148;SDS011;2088;51.032;7.082;2023-04-01T01:48:51;1.23;;;0.80;;
4148;SDS011;2088;51.032;7.082;2023-04-01T01:51:19;0.70;;;0.60;;
4148;SDS011;2088;51.032;7.082;2023-04-01T01:53:48;0.77;;;0.60;;
4148;SDS011;2088;51.032;7.082;2023-04-01T01:56:15;0.70;;;0.50;;
4148;SDS011;2088;51.032;7.082;2023-04-01T01:58:44;0.70;;;0.60;;
4148;SDS011;2088;51.032;7.082;2023-04-01T02:01:13;0.80;;;0.60;;
4148;SDS011;2088;51.032;7.082;2023-04-01T02:03:41;0.80;;;0.77;;
4148;SDS011;2088;51.032;7.082;2023-04-01T02:06:09;4.67;;;0.70;;
4148;SDS011;2088;51.032;7.082;2023-04-01T02:08:38;3.37;;;0.60;;
4148;SDS011;2088;51.032;7.082;2023-04-01T02:11:08;2.10;;;0.70;;
4148;SDS011;2088;51.032;7.082;2023-04-01T02:13:37;1.10;;;0.70;;
4148;SDS011;2088;51.032;7.082;2023-04-01T02:16:06;1.00;;;0.60;;
4148;SDS011;2088;51.032;7.082;2023-04-01T02:18:35;2.70;;;1.00;;
4148;SDS011;2088;51.032;7.082;2023-04-01T02:21:03;1.40;;;0.70;;
4148;SDS011;2088;51.032;7.082;2023-04-01T02:23:31;0.80;;;0.73;;
4148;SDS011;2088;51.032;7.082;2023-04-01T02:26:00;0.90;;;0.67;;
4148;SDS011;2088;51.032;7.082;2023-04-01T02:28:28;1.00;;;0.70;;
4148;SDS011;2088;51.032;7.082;2023-04-01T02:30:56;0.93;;;0.73;;
4148;SDS011;2088;51.032;7.082;2023-04-01T02:33:25;2.23;;;0.80;;
4148;SDS011;2088;51.032;7.082;2023-04-01T02:35:52;0.70;;;0.60;;
4148;SDS011;2088;51.032;7.082;2023-04-01T02:38:19;1.90;;;1.27;;
4148;SDS011;2088;51.032;7.082;2023-04-01T02:40:47;1.00;;;0.77;;
4148;SDS011;2088;51.032;7.082;2023-04-01T02:43:14;2.13;;;0.97;;
4148;SDS011;2088;51.032;7.082;2023-04-01T02:45:43;0.93;;;0.80;;
4148;SDS011;2088;51.032;7.082;2023-04-01T02:48:10;1.00;;;0.70;;
4148;SDS011;2088;51.032;7.082;2023-04-01T02:50:39;2.60;;;0.70;;
4148;SDS011;2088;51.032;7.082;2023-04-01T02:53:06;2.83;;;0.70;;
4148;SDS011;2088;51.032;7.082;2023-04-01T02:55:33;1.40;;;0.77;;
4148;SDS011;2088;51.032;7.082;2023-04-01T02:58:00;0.80;;;0.70;;
4148;SDS011;2088;51.032;7.082;2023-04-01T03:00:27;0.80;;;0.80;;
4148;SDS011;2088;51.032;7.082;2023-04-01T03:02:56;0.80;;;0.60;;
4148;SDS011;2088;51.032;7.082;2023-04-01T03:05:23;1.20;;;0.90;;
4148;SDS011;2088;51.032;7.082;2023-04-01T03:07:50;11.83;;;1.03;;
4148;SDS011;2088;51.032;7.082;2023-04-01T03:10:17;2.60;;;0.73;;
4148;SDS011;2088;51.032;7.082;2023-04-01T03:12:44;0.70;;;0.60;;
4148;SDS011;2088;51.032;7.082;2023-04-01T03:15:12;1.07;;;0.80;;
4148;SDS011;2088;51.032;7.082;2023-04-01T03:17:39;0.70;;;0.70;;
4148;SDS011;2088;51.032;7.082;2023-04-01T03:20:09;0.80;;;0.60;;
4148;SDS011;2088;51.032;7.082;2023-04-01T03:22:36;2.30;;;0.70;;
4148;SDS011;2088;51.032;7.082;2023-04-01T03:25:04;5.50;;;0.60;;
4148;SDS011;2088;51.032;7.082;2023-04-01T03:27:32;0.90;;;0.63;;
4148;SDS011;2088;51.032;7.082;2023-04-01T03:29:59;1.53;;;0.97;;
4148;SDS011;2088;51.032;7.082;2023-04-01T03:32:27;1.33;;;0.70;;
4148;SDS011;2088;51.032;7.082;2023-04-01T03:34:54;2.30;;;0.70;;
4148;SDS011;2088;51.032;7.082;2023-04-01T03:37:22;0.80;;;0.70;;
4148;SDS011;2088;51.032;7.082;2023-04-01T03:39:49;0.80;;;0.70;;
4148;SDS011;2088;51.032;7.082;2023-04-01T03:42:17;1.27;;;0.60;;
4148;SDS011;2088;51.032;7.082;2023-04-01T03:44:44;1.43;;;0.73;;
4148;SDS011;2088;51.032;7.082;2023-04-01T03:47:11;0.80;;;0.60;;
4148;SDS011;2088;51.032;7.082;2023-04-01T03:49:38;0.80;;;0.50;;
4148;SDS011;2088;51.032;7.082;2023-04-01T03:52:07;0.60;;;0.50;;
4148;SDS011;2088;51.032;7.082;2023-04-01T03:54:36;0.70;;;0.63;;
4148;SDS011;2088;51.032;7.082;2023-04-01T03:57:04;1.73;;;1.63;;
4148;SDS011;2088;51.032;7.082;2023-04-01T03:59:31;0.70;;;0.50;;
4148;SDS011;2088;51.032;7.082;2023-04-01T04:01:58;5.23;;;0.70;;
4148;SDS011;2088;51.032;7.082;2023-04-01T04:04:25;0.70;;;0.60;;
4148;SDS011;2088;51.032;7.082;2023-04-01T04:06:53;1.47;;;0.73;;
4148;SDS011;2088;51.032;7.082;2023-04-01T04:09:20;1.40;;;0.80;;
4148;SDS011;2088;51.032;7.082;2023-04-01T04:11:48;1.50;;;0.60;;
4148;SDS011;2088;51.032;7.082;2023-04-01T04:14:15;0.90;;;0.80;;
4148;SDS011;2088;51.032;7.082;2023-04-01T04:16:43;1.20;;;0.70;;
4148;SDS011;2088;51.032;7.082;2023-04-01T04:19:10;0.83;;;0.67;;
4148;SDS011;2088;51.032;7.082;2023-04-01T04:21:37;0.80;;;0.53;;
4148;SDS011;2088;51.032;7.082;2023-04-01T04:24:04;3.07;;;0.80;;
4148;SDS011;2088;51.032;7.082;2023-04-01T04:26:31;1.77;;;0.90;;
4148;SDS011;2088;51.032;7.082;2023-04-01T04:28:59;2.30;;;0.60;;
4148;SDS011;2088;51.032;7.082;2023-04-01T04:31:27;0.80;;;0.70;;
4148;SDS011;2088;51.032;7.082;2023-04-01T04:33:54;0.90;;;0.70;;
4148;SDS011;2088;51.032;7.082;2023-04-01T04:36:21;0.80;;;0.60;;
4148;SDS011;2088;51.032;7.082;2023-04-01T04:38:48;0.90;;;0.90;;
4148;SDS011;2088;51.032;7.082;2023-04-01T04:41:16;1.67;;;0.67;;
4148;SDS011;2088;51.032;7.082;2023-04-01T04:43:48;1.87;;;0.70;;
4148;SDS011;2088;51.032;7.082;2023-04-01T04:46:17;0.70;;;0.60;;
4148;SDS011;2088;51.032;7.082;2023-04-01T04:48:44;0.70;;;0.70;;
4148;SDS011;2088;51.032;7.082;2023-04-01T04:51:14;3.10;;;2.90;;
4148;SDS011;2088;51.032;7.082;2023-04-01T04:53:42;0.70;;;0.60;;
4148;SDS011;2088;51.032;7.082;2023-04-01T04:56:09;0.73;;;0.60;;
4148;SDS011;2088;51.032;7.082;2023-04-01T04:58:36;1.03;;;0.70;;
4148;SDS011;2088;51.032;7.082;2023-04-01T05:01:08;1.07;;;0.70;;
4148;SDS011;2088;51.032;7.082;2023-04-01T05:03:37;0.87;;;0.60;;
4148;SDS011;2088;51.032;7.082;2023-04-01T05:06:04;0.70;;;0.60;;
4148;SDS011;2088;51.032;7.082;2023-04-01T05:08:32;0.70;;;0.60;;
4148;SDS011;2088;51.032;7.082;2023-04-01T05:10:59;0.70;;;0.57;;
4148;SDS011;2088;51.032;7.082;2023-04-01T05:13:26;0.60;;;0.60;;
4148;SDS011;2088;51.032;7.082;2023-04-01T05:15:53;1.20;;;1.00;;
4148;SDS011;2088;51.032;7.082;2023-04-01T05:18:21;0.60;;;0.60;;
4148;SDS011;2088;51.032;7.082;2023-04-01T05:20:50;1.33;;;0.60;;
4148;SDS011;2088;51.032;7.082;2023-04-01T05:23:17;0.67;;;0.60;;
4148;SDS011;2088;51.032;7.082;2023-04-01T05:25:46;0.70;;;0.67;;
4148;SDS011;2088;51.032;7.082;2023-04-01T05:28:13;0.80;;;0.70;;
4148;SDS011;2088;51.032;7.082;2023-04-01T05:30:41;0.70;;;0.60;;
4148;SDS011;2088;51.032;7.082;2023-04-01T05:33:08;0.70;;;0.60;;
4148;SDS011;2088;51.032;7.082;2023-04-01T05:35:35;0.77;;;0.77;;
4148;SDS011;2088;51.032;7.082;2023-04-01T05:38:03;0.70;;;0.50;;
4148;SDS011;2088;51.032;7.082;2023-04-01T05:40:31;2.70;;;0.70;;
4148;SDS011;2088;51.032;7.082;2023-04-01T05:42:58;0.90;;;0.70;;
4148;SDS011;2088;51.032;7.082;2023-04-01T05:45:25;3.07;;;0.80;;
4148;SDS011;2088;51.032;7.082;2023-04-01T05:47:52;0.70;;;0.60;;
4148;SDS011;2088;51.032;7.082;2023-04-01T05:50:19;0.60;;;0.60;;
4148;SDS011;2088;51.032;7.082;2023-04-01T05:52:46;1.00;;;0.70;;
4148;SDS011;2088;51.032;7.082;2023-04-01T05:55:15;0.83;;;0.80;;
4148;SDS011;2088;51.032;7.082;2023-04-01T05:57:42;3.03;;;2.73;;
4148;SDS011;2088;51.032;7.082;2023-04-01T06:00:09;0.70;;;0.50;;
4148;SDS011;2088;51.032;7.082;2023-04-01T06:02:36;0.80;;;0.60;;
4148;SDS011;2088;51.032;7.082;2023-04-01T06:05:11;0.70;;;0.60;;
4148;SDS011;2088;51.032;7.082;2023-04-01T06:07:38;4.83;;;1.57;;
4148;SDS011;2088;51.032;7.082;2023-04-01T06:10:09;2.50;;;0.77;;
4148;SDS011;2088;51.032;7.082;2023-04-01T06:12:41;0.97;;;0.70;;
4148;SDS011;2088;51.032;7.082;2023-04-01T06:15:13;1.40;;;0.90;;
4148;SDS011;2088;51.032;7.082;2023-04-01T06:17:49;1.17;;;1.00;;
4148;SDS011;2088;51.032;7.082;2023-04-01T06:20:20;0.60;;;0.57;;
4148;SDS011;2088;51.032;7.082;2023-04-01T06:23:02;1.07;;;0.80;;
4148;SDS011;2088;51.032;7.082;2023-04-01T06:25:42;0.93;;;0.93;;
4148;SDS011;2088;51.032;7.082;2023-04-01T06:31:13;1.10;;;0.80;;
4148;SDS011;2088;51.032;7.082;2023-04-01T06:33:51;0.80;;;0.60;;
4148;SDS011;2088;51.032;7.082;2023-04-01T06:36:35;1.00;;;0.90;;
4148;SDS011;2088;51.032;7.082;2023-04-01T06:39:12;1.80;;;0.70;;
4148;SDS011;2088;51.032;7.082;2023-04-01T06:41:55;2.27;;;0.83;;
4148;SDS011;2088;51.032;7.082;2023-04-01T06:44:26;0.80;;;0.60;;
4148;SDS011;2088;51.032;7.082;2023-04-01T06:47:01;1.00;;;0.80;;
4148;SDS011;2088;51.032;7.082;2023-04-01T06:49:33;1.10;;;0.80;;
4148;SDS011;2088;51.032;7.082;2023-04-01T06:52:03;3.47;;;0.90;;
4148;SDS011;2088;51.032;7.082;2023-04-01T06:54:34;1.50;;;1.00;;
4148;SDS011;2088;51.032;7.082;2023-04-01T06:57:04;3.93;;;0.90;;
4148;SDS011;2088;51.032;7.082;2023-04-01T06:59:32;1.50;;;1.30;;
4148;SDS011;2088;51.032;7.082;2023-04-01T07:02:02;1.90;;;0.87;;
4148;SDS011;2088;51.032;7.082;2023-04-01T07:04:33;0.83;;;0.70;;
4148;SDS011;2088;51.032;7.082;2023-04-01T07:07:01;1.40;;;0.90;;
4148;SDS011;2088;51.032;7.082;2023-04-01T07:09:31;1.00;;;0.80;;
4148;SDS011;2088;51.032;7.082;2023-04-01T07:12:00;1.40;;;1.03;;
4148;SDS011;2088;51.032;7.082;2023-04-01T07:14:28;1.40;;;1.00;;
4148;SDS011;2088;51.032;7.082;2023-04-01T07:16:58;1.30;;;1.07;;
4148;SDS011;2088;51.032;7.082;2023-04-01T07:19:29;0.93;;;0.83;;
4148;SDS011;2088;51.032;7.082;2023-04-01T07:21:58;1.10;;;1.00;;
4148;SDS011;2088;51.032;7.082;2023-04-01T07:24:29;3.73;;;1.07;;
4148;SDS011;2088;51.032;7.082;2023-04-01T07:26:58;1.17;;;1.07;;
4148;SDS011;2088;51.032;7.082;2023-04-01T07:29:26;3.00;;;0.97;;
4148;SDS011;2088;51.032;7.082;2023-04-01T07:32:00;1.00;;;1.00;;
4148;SDS011;2088;51.032;7.082;2023-04-01T07:34:31;1.00;;;0.90;;
4148;SDS011;2088;51.032;7.082;2023-04-01T07:37:03;1.13;;;1.00;;
4148;SDS011;2088;51.032;7.082;2023-04-01T07:39:35;1.70;;;1.20;;
4148;SDS011;2088;51.032;7.082;2023-04-01T07:42:05;0.93;;;0.83;;
4148;SDS011;2088;51.032;7.082;2023-04-01T07:44:37;2.70;;;1.00;;
4148;SDS011;2088;51.032;7.082;2023-04-01T07:47:09;1.37;;;1.00;;
4148;SDS011;2088;51.032;7.082;2023-04-01T07:49:40;4.33;;;1.20;;
4148;SDS011;2088;51.032;7.082;2023-04-01T07:52:11;1.30;;;1.17;;
4148;SDS011;2088;51.032;7.082;2023-04-01T07:54:41;8.07;;;1.37;;
4148;SDS011;2088;51.032;7.082;2023-04-01T07:57:11;1.73;;;1.30;;
4148;SDS011;2088;51.032;7.082;2023-04-01T07:59:41;5.53;;;1.23;;
4148;SDS011;2088;51.032;7.082;2023-04-01T08:02:12;1.47;;;1.30;;
4148;SDS011;2088;51.032;7.082;2023-04-01T08:04:46;2.90;;;1.40;;
4148;SDS011;2088;51.032;7.082;2023-04-01T08:07:17;2.10;;;1.13;;
4148;SDS011;2088;51.032;7.082;2023-04-01T08:09:46;1.30;;;1.07;;
4148;SDS011;2088;51.032;7.082;2023-04-01T08:12:19;0.83;;;0.83;;
4148;SDS011;2088;51.032;7.082;2023-04-01T08:14:52;2.80;;;1.00;;
4148;SDS011;2088;51.032;7.082;2023-04-01T08:17:23;2.00;;;1.30;;
4148;SDS011;2088;51.032;7.082;2023-04-01T08:19:59;3.50;;;1.67;;
4148;SDS011;2088;51.032;7.082;2023-04-01T08:22:29;2.23;;;1.60;;
4148;SDS011;2088;51.032;7.082;2023-04-01T08:24:57;1.10;;;0.93;;
4148;SDS011;2088;51.032;7.082;2023-04-01T08:27:28;1.30;;;1.20;;
4148;SDS011;2088;51.032;7.082;2023-04-01T08:29:58;1.10;;;1.00;;
4148;SDS011;2088;51.032;7.082;2023-04-01T08:32:27;1.30;;;1.10;;
4148;SDS011;2088;51.032;7.082;2023-04-01T08:35:01;1.83;;;1.20;;
4148;SDS011;2088;51.032;7.082;2023-04-01T08:37:30;1.10;;;1.00;;
4148;SDS011;2088;51.032;7.082;2023-04-01T08:40:00;3.23;;;1.33;;
4148;SDS011;2088;51.032;7.082;2023-04-01T08:42:43;1.20;;;1.10;;
4148;SDS011;2088;51.032;7.082;2023-04-01T08:45:20;1.63;;;1.53;;
4148;SDS011;2088;51.032;7.082;2023-04-01T08:47:51;1.10;;;1.00;;
4148;SDS011;2088;51.032;7.082;2023-04-01T08:50:42;1.43;;;1.00;;
4148;SDS011;2088;51.032;7.082;2023-04-01T08:53:15;1.63;;;1.43;;
4148;SDS011;2088;51.032;7.082;2023-04-01T08:55:47;2.80;;;1.67;;
4148;SDS011;2088;51.032;7.082;2023-04-01T09:01:21;0.80;;;0.80;;
4148;SDS011;2088;51.032;7.082;2023-04-01T09:06:40;1.20;;;1.10;;
4148;SDS011;2088;51.032;7.082;2023-04-01T09:12:14;1.30;;;0.90;;
4148;SDS011;2088;51.032;7.082;2023-04-01T09:17:47;1.67;;;1.40;;
4148;SDS011;2088;51.032;7.082;2023-04-01T09:20:20;6.70;;;1.27;;
4148;SDS011;2088;51.032;7.082;2023-04-01T09:22:56;1.50;;;1.40;;
4148;SDS011;2088;51.032;7.082;2023-04-01T09:25:34;1.23;;;1.13;;
4148;SDS011;2088;51.032;7.082;2023-04-01T09:28:08;1.30;;;1.13;;
4148;SDS011;2088;51.032;7.082;2023-04-01T09:30:44;1.43;;;1.33;;
4148;SDS011;2088;51.032;7.082;2023-04-01T09:33:34;3.93;;;1.43;;
4148;SDS011;2088;51.032;7.082;2023-04-01T09:36:07;1.80;;;1.53;;
4148;SDS011;2088;51.032;7.082;2023-04-01T09:38:42;1.27;;;0.90;;
4148;SDS011;2088;51.032;7.082;2023-04-01T09:41:12;2.17;;;1.10;;
4148;SDS011;2088;51.032;7.082;2023-04-01T09:43:48;3.63;;;1.30;;
4148;SDS011;2088;51.032;7.082;2023-04-01T09:46:23;2.03;;;1.40;;
4148;SDS011;2088;51.032;7.082;2023-04-01T09:49:01;1.37;;;1.10;;
4148;SDS011;2088;51.032;7.082;2023-04-01T09:51:35;1.13;;;1.03;;
4148;SDS011;2088;51.032;7.082;2023-04-01T09:54:10;1.30;;;1.17;;
4148;SDS011;2088;51.032;7.082;2023-04-01T10:02:32;1.43;;;1.33;;
4148;SDS011;2088;51.032;7.082;2023-04-01T10:05:12;1.63;;;1.53;;
4148;SDS011;2088;51.032;7.082;2023-04-01T10:10:48;1.97;;;1.63;;
4148;SDS011;2088;51.032;7.082;2023-04-01T10:13:29;5.83;;;1.63;;
4148;SDS011;2088;51.032;7.082;2023-04-01T10:16:22;3.20;;;1.70;;
4148;SDS011;2088;51.032;7.082;2023-04-01T10:18:56;1.50;;;1.40;;
4148;SDS011;2088;51.032;7.082;2023-04-01T10:21:28;1.80;;;1.70;;
4148;SDS011;2088;51.032;7.082;2023-04-01T10:38:05;1.50;;;1.40;;
4148;SDS011;2088;51.032;7.082;2023-04-01T10:40:37;1.90;;;1.80;;
4148;SDS011;2088;51.032;7.082;2023-04-01T10:48:39;1.93;;;1.57;;
4148;SDS011;2088;51.032;7.082;2023-04-01T10:51:14;2.37;;;1.70;;
4148;SDS011;2088;51.032;7.082;2023-04-01T10:53:47;4.87;;;1.83;;
4148;SDS011;2088;51.032;7.082;2023-04-01T10:59:28;8.23;;;1.73;;
4148;SDS011;2088;51.032;7.082;2023-04-01T11:13:12;2.50;;;2.27;;
4148;SDS011;2088;51.032;7.082;2023-04-01T11:18:40;3.23;;;2.20;;
4148;SDS011;2088;51.032;7.082;2023-04-01T11:21:28;3.87;;;2.23;;
4148;SDS011;2088;51.032;7.082;2023-04-01T11:24:05;6.63;;;2.10;;
4148;SDS011;2088;51.032;7.082;2023-04-01T11:26:38;4.00;;;2.33;;
4148;SDS011;2088;51.032;7.082;2023-04-01T11:29:34;2.57;;;2.03;;
4148;SDS011;2088;51.032;7.082;2023-04-01T11:32:06;3.10;;;1.73;;
4148;SDS011;2088;51.032;7.082;2023-04-01T11:34:44;2.63;;;1.93;;
4148;SDS011;2088;51.032;7.082;2023-04-01T11:37:20;1.83;;;1.70;;
4148;SDS011;2088;51.032;7.082;2023-04-01T11:39:53;2.30;;;2.10;;
4148;SDS011;2088;51.032;7.082;2023-04-01T11:42:25;4.83;;;2.17;;
4148;SDS011;2088;51.032;7.082;2023-04-01T11:45:00;2.40;;;1.97;;
4148;SDS011;2088;51.032;7.082;2023-04-01T11:47:42;3.40;;;2.40;;
4148;SDS011;2088;51.032;7.082;2023-04-01T11:50:17;2.53;;;2.33;;
4148;SDS011;2088;51.032;7.082;2023-04-01T11:52:56;2.40;;;2.20;;
4148;SDS011;2088;51.032;7.082;2023-04-01T11:55:25;2.83;;;2.63;;
4148;SDS011;2088;51.032;7.082;2023-04-01T11:58:08;2.80;;;2.10;;
4148;SDS011;2088;51.032;7.082;2023-04-01T12:00:45;2.23;;;1.83;;
4148;SDS011;2088;51.032;7.082;2023-04-01T12:03:21;1.90;;;1.80;;
4148;SDS011;2088;51.032;7.082;2023-04-01T12:05:58;2.00;;;1.90;;
4148;SDS011;2088;51.032;7.082;2023-04-01T12:08:31;2.10;;;1.90;;
4148;SDS011;2088;51.032;7.082;2023-04-01T12:11:05;1.60;;;1.50;;
4148;SDS011;2088;51.032;7.082;2023-04-01T12:13:42;1.87;;;1.77;;
4148;SDS011;2088;51.032;7.082;2023-04-01T12:16:18;1.83;;;1.73;;
4148;SDS011;2088;51.032;7.082;2023-04-01T12:18:48;2.10;;;1.93;;
4148;SDS011;2088;51.032;7.082;2023-04-01T12:21:19;1.87;;;1.43;;
4148;SDS011;2088;51.032;7.082;2023-04-01T12:23:59;1.73;;;1.63;;
4148;SDS011;2088;51.032;7.082;2023-04-01T12:26:33;1.67;;;1.57;;
4148;SDS011;2088;51.032;7.082;2023-04-01T12:29:08;1.30;;;1.20;;
4148;SDS011;2088;51.032;7.082;2023-04-01T12:31:45;2.33;;;1.50;;
4148;SDS011;2088;51.032;7.082;2023-04-01T12:34:31;3.00;;;1.77;;
4148;SDS011;2088;51.032;7.082;2023-04-01T12:37:03;1.73;;;1.37;;
4148;SDS011;2088;51.032;7.082;2023-04-01T12:39:37;2.10;;;2.00;;
4148;SDS011;2088;51.032;7.082;2023-04-01T12:42:11;3.17;;;1.93;;
4148;SDS011;2088;51.032;7.082;2023-04-01T12:44:48;1.90;;;1.57;;
4148;SDS011;2088;51.032;7.082;2023-04-01T12:47:32;2.47;;;1.97;;
4148;SDS011;2088;51.032;7.082;2023-04-01T12:50:14;1.53;;;1.43;;
4148;SDS011;2088;51.032;7.082;2023-04-01T12:52:46;2.23;;;2.13;;
4148;SDS011;2088;51.032;7.082;2023-04-01T12:55:25;2.27;;;2.07;;
4148;SDS011;2088;51.032;7.082;2023-04-01T12:58:10;2.70;;;1.60;;
4148;SDS011;2088;51.032;7.082;2023-04-01T13:00:46;1.60;;;1.50;;
4148;SDS011;2088;51.032;7.082;2023-04-01T13:03:19;2.87;;;2.07;;
4148;SDS011;2088;51.032;7.082;2023-04-01T13:08:35;2.70;;;2.20;;
4148;SDS011;2088;51.032;7.082;2023-04-01T13:11:08;1.87;;;1.73;;
4148;SDS011;2088;51.032;7.082;2023-04-01T13:13:40;2.03;;;1.93;;
4148;SDS011;2088;51.032;7.082;2023-04-01T13:16:11;2.30;;;2.10;;
4148;SDS011;2088;51.032;7.082;2023-04-01T13:18:47;2.67;;;2.43;;
4148;SDS011;2088;51.032;7.082;2023-04-01T13:21:18;2.27;;;1.67;;
4148;SDS011;2088;51.032;7.082;2023-04-01T13:23:54;4.77;;;1.83;;
4148;SDS011;2088;51.032;7.082;2023-04-01T13:26:22;2.40;;;2.20;;
4148;SDS011;2088;51.032;7.082;2023-04-01T13:28:53;3.70;;;2.10;;
4148;SDS011;2088;51.032;7.082;2023-04-01T13:31:31;2.70;;;2.50;;
4148;SDS011;2088;51.032;7.082;2023-04-01T13:34:06;2.20;;;1.87;;
4148;SDS011;2088;51.032;7.082;2023-04-01T13:36:37;1.50;;;1.40;;
4148;SDS011;2088;51.032;7.082;2023-04-01T13:39:17;2.33;;;1.90;;
4148;SDS011;2088;51.032;7.082;2023-04-01T13:41:51;2.97;;;1.90;;
4148;SDS011;2088;51.032;7.082;2023-04-01T13:44:24;1.60;;;1.50;;
4148;SDS011;2088;51.032;7.082;2023-04-01T13:49:39;2.07;;;1.93;;
4148;SDS011;2088;51.032;7.082;2023-04-01T13:52:15;1.90;;;1.70;;
4148;SDS011;2088;51.032;7.082;2023-04-01T13:54:51;2.00;;;1.90;;
4148;SDS011;2088;51.032;7.082;2023-04-01T13:57:25;2.43;;;2.23;;
4148;SDS011;2088;51.032;7.082;2023-04-01T13:59:59;7.30;;;2.17;;
4148;SDS011;2088;51.032;7.082;2023-04-01T14:05:27;2.43;;;2.23;;
4148;SDS011;2088;51.032;7.082;2023-04-01T14:08:01;2.50;;;2.30;;
4148;SDS011;2088;51.032;7.082;2023-04-01T14:10:31;3.27;;;2.97;;
4148;SDS011;2088;51.032;7.082;2023-04-01T14:13:03;2.70;;;2.50;;
4148;SDS011;2088;51.032;7.082;2023-04-01T14:15:36;3.53;;;2.60;;
4148;SDS011;2088;51.032;7.082;2023-04-01T14:18:16;2.67;;;2.43;;
4148;SDS011;2088;51.032;7.082;2023-04-01T14:20:47;5.20;;;2.20;;
4148;SDS011;2088;51.032;7.082;2023-04-01T14:23:24;3.07;;;2.83;;
4148;SDS011;2088;51.032;7.082;2023-04-01T14:29:01;3.03;;;2.80;;
4148;SDS011;2088;51.032;7.082;2023-04-01T14:31:38;3.20;;;2.30;;
4148;SDS011;2088;51.032;7.082;2023-04-01T14:34:15;4.30;;;3.10;;
4148;SDS011;2088;51.032;7.082;2023-04-01T14:36:49;2.93;;;2.50;;
4148;SDS011;2088;51.032;7.082;2023-04-01T14:39:33;3.00;;;2.00;;
4148;SDS011;2088;51.032;7.082;2023-04-01T14:42:10;2.90;;;2.10;;
4148;SDS011;2088;51.032;7.082;2023-04-01T14:44:51;3.37;;;2.77;;
4148;SDS011;2088;51.032;7.082;2023-04-01T14:47:24;2.47;;;2.23;;
4148;SDS011;2088;51.032;7.082;2023-04-01T14:50:02;3.50;;;3.20;;
4148;SDS011;2088;51.032;7.082;2023-04-01T14:52:32;9.00;;;3.30;;
4148;SDS011;2088;51.032;7.082;2023-04-01T14:55:00;4.13;;;2.77;;
4148;SDS011;2088;51.032;7.082;2023-04-01T14:57:29;3.27;;;2.60;;
4148;SDS011;2088;51.032;7.082;2023-04-01T14:59:59;3.60;;;3.03;;
4148;SDS011;2088;51.032;7.082;2023-04-01T15:05:11;4.47;;;2.73;;
4148;SDS011;2088;51.032;7.082;2023-04-01T15:07:52;5.30;;;3.17;;
4148;SDS011;2088;51.032;7.082;2023-04-01T15:10:29;3.50;;;2.97;;
4148;SDS011;2088;51.032;7.082;2023-04-01T15:12:58;5.00;;;3.17;;
4148;SDS011;2088;51.032;7.082;2023-04-01T15:15:34;3.30;;;3.00;;
4148;SDS011;2088;51.032;7.082;2023-04-01T15:18:07;4.50;;;3.83;;
4148;SDS011;2088;51.032;7.082;2023-04-01T15:20:47;4.57;;;3.00;;
4148;SDS011;2088;51.032;7.082;2023-04-01T15:23:22;4.13;;;3.50;;
4148;SDS011;2088;51.032;7.082;2023-04-01T15:26:03;4.80;;;3.73;;
4148;SDS011;2088;51.032;7.082;2023-04-01T15:28:33;5.57;;;4.37;;
4148;SDS011;2088;51.032;7.082;2023-04-01T15:31:04;3.37;;;2.97;;
4148;SDS011;2088;51.032;7.082;2023-04-01T15:33:47;7.10;;;3.63;;
4148;SDS011;2088;51.032;7.082;2023-04-01T15:36:19;6.30;;;4.00;;
4148;SDS011;2088;51.032;7.082;2023-04-01T15:38:49;5.73;;;3.80;;
4148;SDS011;2088;51.032;7.082;2023-04-01T15:41:20;5.57;;;4.03;;
4148;SDS011;2088;51.032;7.082;2023-04-01T15:43:49;5.57;;;4.47;;
4148;SDS011;2088;51.032;7.082;2023-04-01T15:49:03;5.37;;;4.87;;
4148;SDS011;2088;51.032;7.082;2023-04-01T15:51:37;5.00;;;3.83;;
4148;SDS011;2088;51.032;7.082;2023-04-01T15:54:18;4.00;;;3.23;;
4148;SDS011;2088;51.032;7.082;2023-04-01T15:56:52;3.77;;;3.33;;
4148;SDS011;2088;51.032;7.082;2023-04-01T15:59:27;3.83;;;3.53;;
4148;SDS011;2088;51.032;7.082;2023-04-01T16:01:58;5.10;;;4.20;;
4148;SDS011;2088;51.032;7.082;2023-04-01T16:07:10;8.10;;;4.20;;
4148;SDS011;2088;51.032;7.082;2023-04-01T16:09:49;5.00;;;3.70;;
4148;SDS011;2088;51.032;7.082;2023-04-01T16:12:23;3.70;;;2.90;;
4148;SDS011;2088;51.032;7.082;2023-04-01T16:14:59;3.77;;;3.00;;
4148;SDS011;2088;51.032;7.082;2023-04-01T16:17:42;5.67;;;3.47;;
4148;SDS011;2088;51.032;7.082;2023-04-01T16:20:17;3.60;;;2.97;;
4148;SDS011;2088;51.032;7.082;2023-04-01T16:22:46;7.43;;;3.50;;
4148;SDS011;2088;51.032;7.082;2023-04-01T16:25:19;4.37;;;3.00;;
4148;SDS011;2088;51.032;7.082;2023-04-01T16:27:49;4.43;;;3.33;;
4148;SDS011;2088;51.032;7.082;2023-04-01T16:30:26;2.93;;;2.63;;
4148;SDS011;2088;51.032;7.082;2023-04-01T16:33:00;3.63;;;2.93;;
4148;SDS011;2088;51.032;7.082;2023-04-01T16:35:30;3.87;;;3.10;;
4148;SDS011;2088;51.032;7.082;2023-04-01T16:38:03;3.33;;;2.63;;
4148;SDS011;2088;51.032;7.082;2023-04-01T16:40:36;3.10;;;2.77;;
4148;SDS011;2088;51.032;7.082;2023-04-01T16:43:09;4.23;;;3.03;;
4148;SDS011;2088;51.032;7.082;2023-04-01T16:45:38;4.93;;;3.03;;
4148;SDS011;2088;51.032;7.082;2023-04-01T16:48:10;32.83;;;3.87;;
4148;SDS011;2088;51.032;7.082;2023-04-01T16:50:48;6.30;;;3.37;;
4148;SDS011;2088;51.032;7.082;2023-04-01T16:53:18;4.70;;;3.50;;
4148;SDS011;2088;51.032;7.082;2023-04-01T16:55:50;3.67;;;3.20;;
4148;SDS011;2088;51.032;7.082;2023-04-01T16:58:20;6.57;;;3.27;;
4148;SDS011;2088;51.032;7.082;2023-04-01T17:00:50;4.53;;;3.83;;
4148;SDS011;2088;51.032;7.082;2023-04-01T17:03:20;4.57;;;3.60;;
4148;SDS011;2088;51.032;7.082;2023-04-01T17:05:55;4.53;;;3.30;;